Airfield :
LOGIN :

Register | Disclaimer

   EN    FR    IT 

 










Legend :    VFR   Marginal VFR   IFR   Intensive IFR   Very Intensive IFR
Visi :
Ceiling :
>= 8 km
>= 3000ft
5 to 8 km
1000 to 3000 ft
1500m to 5 km
500 to 1000 ft
800 to 1500m
200 to 500 ft
< 800m
< 200 ft
Symbols :   Thunderstorms  Fog  Heavy snow  Heavy precipitations  Wind > 20 kt
SIGMETs :     Misc.  Thunderstorms  Icing  Turbulence  Mountain Waves  Volcanic Ashes






- Airport Elevation : 821 ft
- IATA code : LYS


LFLL - Lyon St Exupéry / Satolas

CURRENT METAR :
  • 130430Z 19020KT 4700 RA SCT012 BKN043 07/05 Q0987 TEMPO 18020G35KT

EXPIRED METARs :
  • 130400Z 18019KT 8000 RA FEW012 BKN043 07/05 Q0987 TEMPO 18020G35KT
  • 130330Z 19021KT 9999 -RA FEW013 BKN041 06/05 Q0988 TEMPO 18020G35KT
  • 130300Z 18020KT 9999 FEW011 BKN041 06/05 Q0989 RERA TEMPO 18020G35KT
  • 130230Z 18020KT 8000 RA FEW011 OVC048 06/05 Q0990 TEMPO 18020G35KT
  • 130200Z 19019G30KT 9999 -RA FEW015 OVC054 06/05 Q0991 TEMPO 18020G35KT

TAF TAF LFLL
Valid from the 13 at 00:00 until the 14 at 06:00 UTC


122300Z 1300/1406 18015G25KT 9999 -RA FEW015 OVC040
TEMPO 1300/1307 18025G38KT
TEMPO 1306/1308 3000 RA SCT010 FEW030TCU OVC040
FM130900 28012G25KT 9999 NSW SCT030
TEMPO 1309/1317 28020G35KT 4000 SHRA FEW020CB BKN025TCU
BECMG 1319/1321 16010KT -RA OVC040



MET'MAP, your aeronautical weather chart ! - Copyright ORBIFLY December 2007 - Disclaimer

ORBIFLY MET'MAP TEAM :

Programming & Development : Alexandra Zaïnal
Concept & original design : Baudouin d'Aumeries
Assistance for programming : Marc-Olivier Méhu
Technical & hardware support : Manuel Goepfert

Contact : metmap@orbifly.com




SOURCES & CREDITS :

   NOAA